createdAt,value
2018-06-09T03:02:03.089Z,5.63
2018-06-09T03:04:02.912Z,5.63
2018-06-09T03:05:03.811Z,5.63
2018-06-09T03:06:04.408Z,11.25
2018-06-09T03:07:04.630Z,11.25
2018-06-09T03:08:01.156Z,11.25
2018-06-09T03:09:01.361Z,11.25
2018-06-09T03:10:01.435Z,11.25
2018-06-09T03:11:01.557Z,16.88
2018-06-09T03:12:01.737Z,16.88
2018-06-09T03:13:01.947Z,16.88
2018-06-09T03:14:02.173Z,16.88
2018-06-09T03:15:02.463Z,16.88
2018-06-09T03:16:02.555Z,16.88
2018-06-09T03:17:02.730Z,22.50
2018-06-09T03:18:02.902Z,22.50
2018-06-09T03:19:03.095Z,22.50
2018-06-09T03:20:03.243Z,22.50
2018-06-09T03:21:03.471Z,28.13
2018-06-09T03:22:03.544Z,28.13
2018-06-09T03:23:03.712Z,33.75
2018-06-09T03:24:03.988Z,33.75
2018-06-09T03:25:04.067Z,33.75
2018-06-09T03:26:04.213Z,39.38
2018-06-09T03:27:04.357Z,39.38
2018-06-09T03:28:04.568Z,45.00
2018-06-09T03:29:04.703Z,45.00
2018-06-09T03:30:04.990Z,50.63
2018-06-09T03:31:05.088Z,50.63
2018-06-09T03:32:05.240Z,56.25
2018-06-09T03:33:05.343Z,56.25
2018-06-09T03:34:05.569Z,61.88
2018-06-09T03:35:05.723Z,61.88
2018-06-09T03:36:05.910Z,67.50
2018-06-09T03:37:06.170Z,67.50
2018-06-09T03:38:06.291Z,73.13
2018-06-09T03:39:06.384Z,73.13
2018-06-09T03:40:06.584Z,73.13
2018-06-09T03:41:06.811Z,78.75
2018-06-09T03:42:07.046Z,78.75
2018-06-09T03:43:07.181Z,78.75
2018-06-09T03:44:07.271Z,78.75
2018-06-09T03:45:07.504Z,84.38
2018-06-09T03:46:07.680Z,84.38
2018-06-09T03:47:07.776Z,90.00
2018-06-09T03:48:07.934Z,90.00
2018-06-09T03:49:08.022Z,95.63
2018-06-09T03:50:08.277Z,95.63
2018-06-09T03:51:08.375Z,95.63
2018-06-09T03:52:08.619Z,101.25
2018-06-09T03:53:08.748Z,101.25
2018-06-09T03:54:08.942Z,106.88
2018-06-09T03:55:09.138Z,106.88
2018-06-09T03:56:09.277Z,112.50
2018-06-09T03:57:09.478Z,112.50
2018-06-09T03:58:09.615Z,118.13
2018-06-09T03:59:09.775Z,118.13
2018-06-09T04:00:10.000Z,118.13
2018-06-09T04:01:10.189Z,123.75
2018-06-09T04:02:10.386Z,123.75
2018-06-09T04:03:10.538Z,123.75
2018-06-09T04:04:10.740Z,123.75
2018-06-09T04:05:10.769Z,123.75
2018-06-09T04:06:11.040Z,129.38
2018-06-09T04:07:11.249Z,129.38
2018-06-09T04:08:11.398Z,129.38
2018-06-09T04:09:11.595Z,129.38
2018-06-09T04:10:11.825Z,129.38
2018-06-09T04:11:11.901Z,129.38
2018-06-09T04:12:12.029Z,129.38
2018-06-09T04:13:12.339Z,135.00
2018-06-09T04:14:12.405Z,135.00
2018-06-09T04:15:12.601Z,135.00
2018-06-09T04:16:12.811Z,135.00
2018-06-09T04:17:12.983Z,135.00
2018-06-09T04:18:13.058Z,135.00
2018-06-09T04:19:13.294Z,135.00
2018-06-09T04:20:13.526Z,135.00
2018-06-09T04:21:13.625Z,135.00
2018-06-09T04:22:13.801Z,135.00
2018-06-09T04:23:13.944Z,135.00
2018-06-09T04:24:14.053Z,129.38
2018-06-09T04:25:14.247Z,129.38
2018-06-09T04:26:14.422Z,129.38
2018-06-09T04:27:14.494Z,129.38
2018-06-09T04:28:14.781Z,123.75
2018-06-09T04:29:14.876Z,118.13
2018-06-09T04:30:15.140Z,118.13
2018-06-09T04:31:15.348Z,123.75
2018-06-09T04:32:15.486Z,123.75
2018-06-09T04:33:15.609Z,123.75
2018-06-09T04:34:15.792Z,123.75
2018-06-09T04:35:16.001Z,118.13
2018-06-09T04:36:16.109Z,123.75
2018-06-09T04:37:16.311Z,123.75
2018-06-09T04:38:17.592Z,123.75
2018-06-09T04:39:16.578Z,129.38
2018-06-09T04:40:16.852Z,135.00
2018-06-09T04:41:17.011Z,140.63
2018-06-09T04:42:17.273Z,146.25
2018-06-09T04:43:17.351Z,151.88
2018-06-09T04:44:17.529Z,157.50
2018-06-09T04:45:17.712Z,157.50
2018-06-09T04:46:17.966Z,157.50
2018-06-09T04:47:18.017Z,157.50
2018-06-09T04:48:18.171Z,163.13
2018-06-09T04:49:18.396Z,157.50
2018-06-09T04:50:18.562Z,163.13
2018-06-09T04:51:18.735Z,157.50
2018-06-09T04:52:18.915Z,163.13
2018-06-09T04:53:19.040Z,151.88
2018-06-09T04:54:19.846Z,151.88
2018-06-09T04:55:19.408Z,151.88
2018-06-09T04:56:19.495Z,140.63
2018-06-09T04:57:19.786Z,135.00
2018-06-09T04:58:19.834Z,123.75
2018-06-09T04:59:20.150Z,123.75
2018-06-09T05:00:20.268Z,129.38
2018-06-09T05:01:20.455Z,135.00
2018-06-09T05:02:20.619Z,135.00
2018-06-09T05:03:20.829Z,140.63
2018-06-09T05:04:20.899Z,146.25
2018-06-09T05:05:21.138Z,157.50
2018-06-09T05:06:21.328Z,174.38
2018-06-09T05:07:21.478Z,191.25
2018-06-09T05:08:21.709Z,208.13
2018-06-09T05:09:21.934Z,230.63
2018-06-09T05:10:21.994Z,247.50
2018-06-09T05:11:22.143Z,258.75
2018-06-09T05:12:22.279Z,270.00
2018-06-09T05:13:22.424Z,275.63
2018-06-09T05:14:22.774Z,281.25
2018-06-09T05:15:22.873Z,286.88
2018-06-09T05:16:22.960Z,292.50
2018-06-09T05:17:23.310Z,303.75
2018-06-09T05:18:25.348Z,315.00
2018-06-09T05:19:23.490Z,326.25
2018-06-09T05:20:24.457Z,331.88
2018-06-09T05:21:23.856Z,326.25
2018-06-09T05:22:24.011Z,320.63
2018-06-09T05:23:24.244Z,343.13
2018-06-09T05:24:24.414Z,354.38
2018-06-09T05:25:24.480Z,354.38
2018-06-09T05:26:24.802Z,354.38
2018-06-09T05:27:24.745Z,348.75
2018-06-09T05:28:24.911Z,343.13
2018-06-09T05:29:25.123Z,337.50
2018-06-09T05:30:25.265Z,331.88
2018-06-09T05:31:25.535Z,298.13
2018-06-09T05:32:25.752Z,286.88
2018-06-09T05:33:25.844Z,281.25
2018-06-09T05:34:25.980Z,275.63
2018-06-09T05:35:26.241Z,270.00
2018-06-09T05:36:26.483Z,270.00
2018-06-09T05:37:26.516Z,264.38
2018-06-09T05:38:26.698Z,270.00
2018-06-09T05:39:26.875Z,270.00
2018-06-09T05:40:27.018Z,281.25
2018-06-09T05:41:27.328Z,286.88
2018-06-09T05:42:27.567Z,286.88
2018-06-09T05:43:27.566Z,281.25
2018-06-09T05:44:27.816Z,281.25
2018-06-09T05:45:27.953Z,264.38
2018-06-09T05:46:27.989Z,253.13
2018-06-09T05:47:28.293Z,247.50
2018-06-09T05:48:28.511Z,253.13
2018-06-09T05:49:28.683Z,253.13
2018-06-09T05:50:28.790Z,258.75
2018-06-09T05:51:29.026Z,264.38
2018-06-09T05:52:30.078Z,264.38
2018-06-09T05:53:29.411Z,264.38
2018-06-09T05:54:29.527Z,258.75
2018-06-09T05:55:29.660Z,258.75
2018-06-09T05:56:29.839Z,258.75
2018-06-09T05:57:30.117Z,258.75
2018-06-09T05:58:30.392Z,253.13
2018-06-09T05:59:30.529Z,258.75
2018-06-09T06:00:31.349Z,258.75
2018-06-09T06:01:30.932Z,264.38
2018-06-09T06:02:31.009Z,270.00
2018-06-09T06:03:31.139Z,298.13
2018-06-09T06:11:43.966Z,303.75
2018-06-09T06:12:44.353Z,326.25
2018-06-09T06:13:47.582Z,331.88
2018-06-09T06:14:46.716Z,331.88
2018-06-09T06:15:46.071Z,343.13
2018-06-09T06:17:45.226Z,371.25
2018-06-09T06:18:46.977Z,376.88
2018-06-09T06:19:44.263Z,360.00
2018-06-09T06:20:43.095Z,365.63
2018-06-09T06:21:43.487Z,365.63
2018-06-09T06:22:43.618Z,354.38
2018-06-09T06:23:44.134Z,365.63
2018-06-09T06:24:45.524Z,360.00
2018-06-09T06:27:29.785Z,382.50
2018-06-09T06:28:32.366Z,416.25
2018-06-09T06:29:29.404Z,416.25
2018-06-09T06:30:29.372Z,421.88
2018-06-09T06:31:30.010Z,427.50
2018-06-09T06:32:30.542Z,427.50
2018-06-09T06:33:37.785Z,410.63
2018-06-09T06:36:28.254Z,421.88
2018-06-09T06:37:12.012Z,410.63
2018-06-09T06:38:07.303Z,405.00
2018-06-09T06:40:05.886Z,416.25
2018-06-09T06:41:06.027Z,433.13
2018-06-09T06:42:21.269Z,427.50
2018-06-09T06:43:04.161Z,427.50
2018-06-09T06:44:04.172Z,438.75
2018-06-09T06:45:06.080Z,461.25
2018-06-09T06:46:07.113Z,450.00
2018-06-09T06:47:07.512Z,450.00
2018-06-09T06:53:31.371Z,450.00
2018-06-09T06:54:10.395Z,461.25
2018-06-09T06:55:10.358Z,461.25
2018-06-09T06:56:12.178Z,466.88
2018-06-09T06:57:16.555Z,466.88
2018-06-09T06:58:14.644Z,461.25
2018-06-09T06:59:36.756Z,466.88
2018-06-09T07:03:49.816Z,461.25
2018-06-09T07:04:51.842Z,444.38
2018-06-09T07:05:51.100Z,444.38
2018-06-09T07:08:25.476Z,438.75
2018-06-09T07:09:26.834Z,438.75
2018-06-09T07:27:34.425Z,528.75
2018-06-09T07:34:12.600Z,556.88
2018-06-09T07:35:12.680Z,562.50
2018-06-09T07:36:13.436Z,568.13
2018-06-09T07:37:13.306Z,568.13
2018-06-09T07:38:13.658Z,562.50
2018-06-09T07:39:15.563Z,568.13
2018-06-09T07:41:47.410Z,511.88
2018-06-09T07:46:48.681Z,523.13
2018-06-09T07:47:50.610Z,540.00
2018-06-09T07:49:49.481Z,523.13
2018-06-09T07:50:48.496Z,495.00
2018-06-09T07:51:50.254Z,478.13
2018-06-09T07:52:48.050Z,466.88
2018-06-09T07:53:47.001Z,455.63
2018-06-09T07:54:46.250Z,450.00
2018-06-09T07:55:46.577Z,461.25
2018-06-09T07:56:47.101Z,478.13
2018-06-09T07:57:46.880Z,500.63
2018-06-09T07:58:47.030Z,517.50
2018-06-09T07:59:47.352Z,551.25
2018-06-09T08:00:47.529Z,528.75
2018-06-09T08:01:47.712Z,585.00
2018-06-09T08:02:47.749Z,556.88
2018-06-09T08:03:48.501Z,568.13
2018-06-09T08:04:49.236Z,601.88
2018-06-09T08:05:48.738Z,607.50
2018-06-09T08:06:48.474Z,607.50
2018-06-09T08:07:48.832Z,613.13
2018-06-09T08:08:49.028Z,613.13
2018-06-09T08:09:49.493Z,613.13
2018-06-09T08:10:49.406Z,613.13
2018-06-09T08:11:49.627Z,624.38
2018-06-09T08:12:49.736Z,618.75
2018-06-09T08:13:49.927Z,624.38
2018-06-09T08:14:50.407Z,630.00
2018-06-09T08:15:50.440Z,663.75
2018-06-09T08:16:50.509Z,675.00
2018-06-09T08:17:50.644Z,691.88
2018-06-09T08:18:50.955Z,691.88
2018-06-09T08:19:50.990Z,686.25
2018-06-09T08:20:51.161Z,691.88
2018-06-09T08:21:51.383Z,697.50
2018-06-09T08:22:51.656Z,703.13
2018-06-09T08:23:51.686Z,720.00
2018-06-09T08:24:51.889Z,725.63
2018-06-09T08:25:52.241Z,742.50
2018-06-09T08:26:52.731Z,753.75
2018-06-09T08:27:52.942Z,759.38
2018-06-09T09:40:31.446Z,849.38
2018-06-09T09:41:28.727Z,860.63
2018-06-09T09:44:06.138Z,860.63
2018-06-09T09:46:10.218Z,860.63
2018-06-09T09:46:34.430Z,866.25
2018-06-09T09:47:14.870Z,866.25
2018-06-09T09:50:12.290Z,877.50
2018-06-09T09:51:26.168Z,883.13
2018-06-09T09:52:18.755Z,888.75
2018-06-09T09:53:14.391Z,894.38
2018-06-09T09:54:10.784Z,900.00
2018-06-09T09:55:10.933Z,916.88
2018-06-09T09:56:13.488Z,916.88
2018-06-09T09:57:12.443Z,922.50
2018-06-09T09:58:12.040Z,916.88
2018-06-09T09:59:11.598Z,922.50
2018-06-09T10:00:11.890Z,922.50
2018-06-09T10:01:11.966Z,916.88
2018-06-09T10:02:12.437Z,990.00
2018-06-09T10:03:13.279Z,1254.38
2018-06-09T10:04:12.712Z,1631.25
2018-06-09T10:05:12.782Z,2025.00
2018-06-09T10:06:15.541Z,2199.38
2018-06-09T10:07:28.827Z,2205.00
2018-06-09T10:10:45.733Z,2368.13
2018-06-09T10:13:17.584Z,2356.88
2018-06-09T10:16:41.565Z,2469.38
2018-06-09T10:18:50.073Z,2514.38
2018-06-09T10:22:12.359Z,2525.63
2018-06-09T10:24:17.853Z,2581.88
2018-06-09T10:36:05.709Z,2683.13
2018-06-09T10:37:17.270Z,2666.25
2018-06-09T10:38:20.723Z,2671.88
2018-06-09T10:45:08.799Z,2885.63
2018-06-09T10:50:26.137Z,2880.00
2018-06-09T10:53:11.664Z,2880.00
2018-06-09T10:55:09.254Z,2975.63
2018-06-09T10:59:56.248Z,3060.00
2018-06-09T11:03:28.643Z,3105.00
2018-06-09T11:04:29.910Z,3178.13
2018-06-09T11:05:33.879Z,3245.63
2018-06-09T11:10:43.518Z,3223.13
2018-06-09T11:14:56.134Z,3251.25
2018-06-09T11:16:01.096Z,3234.38
2018-06-09T11:16:59.418Z,3178.13
2018-06-09T12:16:44.857Z,3667.50
2018-06-09T12:17:46.063Z,3673.13
2018-06-09T12:19:16.559Z,3695.63
2018-06-09T12:19:48.541Z,3746.25
2018-06-09T12:25:43.022Z,3796.88
2018-06-09T12:40:36.425Z,3903.75
2018-06-09T12:42:36.205Z,3898.13
2018-06-09T14:53:18.732Z,697.50
2018-06-09T16:09:23.200Z,174.38
2018-06-09T16:10:17.571Z,174.38
2018-06-09T16:12:17.067Z,174.38
2018-06-09T16:13:18.287Z,168.75
2018-06-09T16:15:43.385Z,163.13
2018-06-09T16:29:33.127Z,123.75
2018-06-09T16:30:32.919Z,123.75
2018-06-09T16:31:32.904Z,118.13
2018-06-09T16:32:32.693Z,118.13
2018-06-09T16:33:32.960Z,118.13
2018-06-09T16:34:33.144Z,118.13
2018-06-09T16:35:33.216Z,118.13
2018-06-09T16:36:33.424Z,118.13
2018-06-09T16:37:33.653Z,112.50
2018-06-09T16:38:33.824Z,112.50
2018-06-09T16:39:33.924Z,106.88
2018-06-09T16:40:34.184Z,101.25
2018-06-09T16:41:34.318Z,95.63
2018-06-09T16:42:34.535Z,95.63
2018-06-09T16:43:34.685Z,95.63
2018-06-09T16:44:34.935Z,95.63
2018-06-09T16:45:35.371Z,95.63
2018-06-09T16:46:35.363Z,90.00
2018-06-09T16:47:36.263Z,90.00
2018-06-09T16:48:35.659Z,90.00
2018-06-09T16:49:35.879Z,90.00
2018-06-09T16:50:35.950Z,90.00
2018-06-09T16:51:36.300Z,90.00
2018-06-09T16:52:36.664Z,90.00
2018-06-09T16:53:36.556Z,90.00
2018-06-09T16:54:36.852Z,84.38
2018-06-09T16:55:37.018Z,84.38
2018-06-09T16:56:37.138Z,84.38
2018-06-09T16:57:37.314Z,84.38
2018-06-09T16:58:37.641Z,78.75
2018-06-09T16:59:37.682Z,78.75
2018-06-09T17:00:37.907Z,73.13
2018-06-09T17:01:38.233Z,73.13
2018-06-09T17:02:38.238Z,67.50
2018-06-09T17:03:38.458Z,67.50
2018-06-09T17:04:38.769Z,61.88
2018-06-09T17:05:38.799Z,56.25
2018-06-09T17:06:38.909Z,56.25
2018-06-09T17:07:39.100Z,50.63
2018-06-09T17:08:39.296Z,45.00
2018-06-09T17:09:39.540Z,45.00
2018-06-09T17:10:39.679Z,39.38
2018-06-09T17:11:39.840Z,39.38
2018-06-09T17:12:39.959Z,39.38
2018-06-09T17:13:40.181Z,33.75
2018-06-09T17:14:40.347Z,33.75
2018-06-09T17:15:40.725Z,33.75
2018-06-09T17:16:40.686Z,28.13
2018-06-09T17:17:40.833Z,28.13
2018-06-09T17:18:41.029Z,28.13
2018-06-09T17:19:41.297Z,22.50
2018-06-09T17:20:41.533Z,22.50
2018-06-09T17:21:41.682Z,22.50
2018-06-09T17:22:41.781Z,22.50
2018-06-09T17:23:42.014Z,22.50
2018-06-09T17:24:42.272Z,22.50
2018-06-09T17:25:42.313Z,22.50
2018-06-09T17:26:42.547Z,16.88
2018-06-09T17:27:42.669Z,16.88
2018-06-09T17:28:42.961Z,16.88
2018-06-09T17:29:43.296Z,16.88
2018-06-09T17:30:43.321Z,16.88
2018-06-09T17:31:43.590Z,16.88
2018-06-09T17:32:43.984Z,16.88
2018-06-09T17:33:43.981Z,16.88
2018-06-09T17:34:44.036Z,16.88
2018-06-09T17:35:44.361Z,16.88
2018-06-09T17:36:44.501Z,16.88
2018-06-09T17:37:44.895Z,16.88
2018-06-09T17:38:45.004Z,16.88
2018-06-09T17:39:45.077Z,16.88
2018-06-09T17:40:45.194Z,16.88
2018-06-09T17:41:45.331Z,16.88
2018-06-09T17:42:45.885Z,16.88
2018-06-09T17:43:45.711Z,16.88
2018-06-09T17:44:45.950Z,16.88
2018-06-09T17:45:46.199Z,16.88
2018-06-09T17:46:46.336Z,16.88
2018-06-09T17:47:46.566Z,16.88
2018-06-09T17:48:46.847Z,16.88
2018-06-09T17:49:46.924Z,16.88
2018-06-09T17:50:47.173Z,16.88
2018-06-09T17:51:47.454Z,16.88
2018-06-09T17:52:47.489Z,16.88
2018-06-09T17:53:48.269Z,16.88
2018-06-09T17:54:48.771Z,16.88
2018-06-09T17:55:48.982Z,11.25
2018-06-09T17:56:48.521Z,11.25
2018-06-09T17:57:49.499Z,11.25
2018-06-09T17:58:48.918Z,11.25
2018-06-09T17:59:49.767Z,11.25
2018-06-09T18:00:49.918Z,11.25
2018-06-09T18:01:49.448Z,11.25
2018-06-09T18:02:50.275Z,11.25
2018-06-09T18:03:49.646Z,11.25
2018-06-09T18:04:49.761Z,11.25
2018-06-09T18:05:50.111Z,11.25
2018-06-09T18:06:50.300Z,11.25
2018-06-09T18:07:50.304Z,11.25
2018-06-09T18:08:50.640Z,11.25
2018-06-09T18:09:50.709Z,11.25
2018-06-09T18:10:50.927Z,11.25
2018-06-09T18:11:51.197Z,11.25
2018-06-09T18:12:51.336Z,11.25
2018-06-09T18:13:51.542Z,11.25
2018-06-09T18:14:51.631Z,11.25
2018-06-09T18:15:51.817Z,11.25
2018-06-09T18:16:51.982Z,11.25
2018-06-09T18:20:40.421Z,11.25
2018-06-09T18:21:40.406Z,5.63
2018-06-09T18:22:40.251Z,5.63
2018-06-09T18:23:41.250Z,5.63
2018-06-09T18:24:38.148Z,5.63
2018-06-09T18:25:38.149Z,5.63
2018-06-09T18:26:38.316Z,5.63
2018-06-09T18:27:38.583Z,5.63
2018-06-09T18:28:38.672Z,5.63
2018-06-09T18:29:38.815Z,5.63
2018-06-09T18:30:38.957Z,5.63
2018-06-09T18:31:39.067Z,5.63
2018-06-09T18:32:39.333Z,5.63
2018-06-09T18:33:39.623Z,5.63
2018-06-09T18:34:39.743Z,5.63
2018-06-09T18:35:39.838Z,5.63
2018-06-09T18:36:40.034Z,5.63
2018-06-09T18:37:40.310Z,5.63
2018-06-09T18:38:40.557Z,5.63
2018-06-09T18:39:40.647Z,5.63
2018-06-09T18:40:40.754Z,5.63
2018-06-09T18:41:41.073Z,5.63
2018-06-09T18:42:41.186Z,5.63
2018-06-09T18:43:41.418Z,5.63
2018-06-09T18:44:41.558Z,5.63
2018-06-09T18:45:41.865Z,5.63
2018-06-09T18:46:41.998Z,5.63
2018-06-09T18:47:42.147Z,5.63
2018-06-09T18:48:42.577Z,0.00
2018-06-09T18:49:42.654Z,0.00
2018-06-09T18:50:42.698Z,0.00
2018-06-09T18:51:42.883Z,0.00
2018-06-09T18:52:43.085Z,0.00
2018-06-09T18:53:43.197Z,0.00
2018-06-09T18:54:43.522Z,0.00
2018-06-09T18:55:43.740Z,0.00
2018-06-09T18:56:43.657Z,0.00
2018-06-09T18:57:43.987Z,0.00
2018-06-09T18:58:44.219Z,0.00
2018-06-09T18:59:44.366Z,0.00
2018-06-09T19:00:44.493Z,0.00
2018-06-09T19:01:44.690Z,0.00
2018-06-09T19:02:44.792Z,0.00
2018-06-09T19:03:44.974Z,0.00
2018-06-09T19:04:45.178Z,0.00
2018-06-09T19:05:45.355Z,0.00
2018-06-09T19:06:45.476Z,0.00
2018-06-09T19:07:45.708Z,0.00
2018-06-09T19:08:45.991Z,0.00
2018-06-09T19:09:46.095Z,0.00
2018-06-09T19:10:46.177Z,0.00
2018-06-09T19:11:46.326Z,0.00
2018-06-09T19:12:46.675Z,0.00
2018-06-09T19:13:46.668Z,0.00
2018-06-09T19:14:47.211Z,0.00
2018-06-09T19:15:47.116Z,0.00
2018-06-09T19:16:47.436Z,0.00
2018-06-09T19:17:47.361Z,0.00
2018-06-09T19:18:47.779Z,0.00
2018-06-09T19:19:47.816Z,0.00
2018-06-09T19:20:47.947Z,0.00
2018-06-09T19:21:48.076Z,0.00
2018-06-09T19:22:48.513Z,0.00
2018-06-09T19:23:48.481Z,0.00
2018-06-09T19:24:48.685Z,0.00
2018-06-09T19:25:48.823Z,0.00
2018-06-09T19:26:49.037Z,0.00
2018-06-09T19:27:49.096Z,0.00
2018-06-09T19:28:49.355Z,0.00
2018-06-09T19:29:49.540Z,0.00
2018-06-09T19:30:49.750Z,0.00
2018-06-09T19:31:49.983Z,0.00
2018-06-09T19:32:50.143Z,0.00
2018-06-09T19:33:50.209Z,0.00
2018-06-09T19:34:50.331Z,0.00
2018-06-09T19:35:50.679Z,0.00
2018-06-09T19:36:50.733Z,0.00
2018-06-09T19:37:50.940Z,0.00
2018-06-09T19:38:51.070Z,0.00
2018-06-09T19:39:51.334Z,0.00
2018-06-09T19:40:51.783Z,0.00
2018-06-09T19:41:51.763Z,0.00
2018-06-09T19:42:51.831Z,0.00
2018-06-09T19:43:52.040Z,0.00
2018-06-09T19:44:52.346Z,0.00
2018-06-09T19:45:52.752Z,0.00
2018-06-09T19:46:52.803Z,0.00
2018-06-09T19:47:52.889Z,0.00
2018-06-09T19:48:53.102Z,0.00
2018-06-09T19:49:53.298Z,0.00
2018-06-09T19:50:53.494Z,0.00
2018-06-09T19:51:53.765Z,0.00
2018-06-09T19:52:53.755Z,0.00
2018-06-09T19:53:53.897Z,0.00
2018-06-09T19:54:54.285Z,0.00
2018-06-09T19:55:54.285Z,0.00
2018-06-09T19:56:54.847Z,0.00
2018-06-09T19:57:54.837Z,0.00
2018-06-09T19:58:55.061Z,0.00
2018-06-09T19:59:55.160Z,0.00
2018-06-09T20:00:55.447Z,0.00
2018-06-09T20:01:55.804Z,0.00
2018-06-09T20:02:55.771Z,0.00
2018-06-09T20:03:56.162Z,0.00
2018-06-09T20:04:56.205Z,0.00
2018-06-09T20:05:56.500Z,0.00
2018-06-09T20:06:56.485Z,0.00
2018-06-09T20:07:56.868Z,0.00
2018-06-09T20:08:56.982Z,0.00
2018-06-09T20:09:57.179Z,0.00
2018-06-09T20:10:57.439Z,0.00
2018-06-09T20:11:57.588Z,0.00
2018-06-09T20:12:57.724Z,0.00
2018-06-09T20:13:58.009Z,0.00
2018-06-09T20:14:58.127Z,0.00
2018-06-09T20:15:58.477Z,0.00
2018-06-09T20:16:58.698Z,0.00
2018-06-09T20:17:58.753Z,0.00
2018-06-09T20:18:58.913Z,0.00
2018-06-09T20:19:59.077Z,0.00
2018-06-09T20:20:59.212Z,0.00
2018-06-09T20:21:59.317Z,0.00
2018-06-09T20:22:59.663Z,0.00
2018-06-09T20:23:59.745Z,0.00
2018-06-09T20:24:59.991Z,0.00
2018-06-09T20:26:00.166Z,0.00
2018-06-09T20:27:01.026Z,0.00
2018-06-09T20:28:00.447Z,0.00
2018-06-09T20:29:00.812Z,0.00
2018-06-09T20:30:01.176Z,0.00
2018-06-09T20:31:01.020Z,0.00
2018-06-09T20:32:01.200Z,0.00
2018-06-09T20:33:01.542Z,0.00
2018-06-09T20:34:02.664Z,0.00
2018-06-09T20:35:01.948Z,0.00
2018-06-09T20:36:01.953Z,0.00
2018-06-09T20:37:02.173Z,0.00
2018-06-09T20:38:02.309Z,0.00
2018-06-09T20:39:02.667Z,0.00
2018-06-09T20:40:02.752Z,0.00
2018-06-09T20:41:03.001Z,0.00
2018-06-09T20:42:03.102Z,0.00
2018-06-09T20:43:03.236Z,0.00
2018-06-09T20:44:03.504Z,0.00
2018-06-09T20:45:03.592Z,0.00
2018-06-09T20:46:03.984Z,0.00
2018-06-09T20:47:03.969Z,0.00
2018-06-09T20:48:04.197Z,0.00
2018-06-09T20:49:04.522Z,0.00
2018-06-09T20:50:04.516Z,0.00
2018-06-09T20:51:04.720Z,0.00
2018-06-09T20:52:05.009Z,0.00
2018-06-09T20:53:05.041Z,0.00
2018-06-09T20:54:05.245Z,0.00
2018-06-09T20:55:05.347Z,0.00
2018-06-09T20:56:05.539Z,0.00
2018-06-09T20:57:05.673Z,0.00
2018-06-09T20:58:05.872Z,0.00
2018-06-09T20:59:06.012Z,0.00
2018-06-09T21:00:06.232Z,0.00
2018-06-09T21:01:06.406Z,0.00
2018-06-09T21:02:06.640Z,0.00
2018-06-09T21:03:06.822Z,0.00
2018-06-09T21:04:06.925Z,0.00
2018-06-09T21:05:07.103Z,0.00
2018-06-09T21:06:07.252Z,0.00
2018-06-09T21:07:07.999Z,0.00
2018-06-09T21:08:07.617Z,0.00
2018-06-09T21:09:07.887Z,0.00
2018-06-09T21:10:07.963Z,0.00
2018-06-09T21:11:08.091Z,0.00
2018-06-09T21:12:08.236Z,0.00
2018-06-09T21:13:08.479Z,0.00
2018-06-09T21:14:08.675Z,0.00
2018-06-09T21:15:08.837Z,0.00
2018-06-09T21:16:09.094Z,0.00
2018-06-09T21:17:09.257Z,0.00
2018-06-09T21:18:09.385Z,0.00
2018-06-09T21:19:09.684Z,0.00
2018-06-09T21:20:09.776Z,0.00
2018-06-09T21:21:10.010Z,0.00
2018-06-09T21:22:10.073Z,0.00
2018-06-09T21:23:10.287Z,0.00
2018-06-09T21:24:10.494Z,0.00
2018-06-09T21:25:10.695Z,0.00
2018-06-09T21:26:10.888Z,0.00
2018-06-09T21:27:11.085Z,0.00
2018-06-09T21:28:11.217Z,0.00
2018-06-09T21:29:11.453Z,0.00
2018-06-09T21:30:11.506Z,0.00
2018-06-09T21:31:11.719Z,0.00
2018-06-09T21:32:11.880Z,0.00
2018-06-09T21:33:12.164Z,0.00
2018-06-09T21:34:12.272Z,0.00
2018-06-09T21:35:12.400Z,0.00
2018-06-09T21:36:12.514Z,0.00
2018-06-09T21:37:12.741Z,0.00
2018-06-09T21:38:12.931Z,0.00
2018-06-09T21:39:13.161Z,0.00
2018-06-09T21:40:13.440Z,0.00
2018-06-09T21:41:13.516Z,0.00
2018-06-09T21:42:13.746Z,0.00
2018-06-09T21:43:13.913Z,0.00
2018-06-09T21:44:14.056Z,0.00
2018-06-09T21:45:14.170Z,0.00
2018-06-09T21:46:14.485Z,0.00
2018-06-09T21:47:14.589Z,0.00
2018-06-09T21:48:14.701Z,0.00
2018-06-09T21:49:14.869Z,0.00
